Time;durP1;ratioP1;P1;durP2;ratioP2;P2;SDS_P1;SDS_P2;PMS_P1;PMS_P2;Temp;Humidity;BMP_temperature;BMP_pressure;BME280_temperature;BME280_humidity;BME280_pressure;Samples;Min_cycle;Max_cycle;Signal;HPM_P1;HPM_P2
2023/05/03 00:00:07;;;;;;;6.53;1.95;;;7.10;99.90;;;;;;4218793;28;20044;-86
2023/05/03 00:02:09;;;;;;;4.82;1.50;;;7.10;99.90;;;;;;4199466;28;20496;-87
2023/05/03 00:04:10;;;;;;;6.35;1.95;;;7.20;99.90;;;;;;4220319;28;20498;-86
2023/05/03 00:06:13;;;;;;;3.15;1.40;;;7.20;99.90;;;;;;4217990;28;20043;-86
2023/05/03 00:08:14;;;;;;;2.78;1.42;;;7.10;99.90;;;;;;4230281;28;20027;-87
2023/05/03 00:10:18;;;;;;;2.05;1.40;;;7.10;99.90;;;;;;4231028;28;20563;-85
2023/05/03 00:12:20;;;;;;;5.28;1.38;;;7.10;99.90;;;;;;4237075;27;20071;-87
2023/05/03 00:14:21;;;;;;;5.82;1.30;;;7.20;99.90;;;;;;4236616;28;20047;-87
2023/05/03 00:16:22;;;;;;;3.97;1.20;;;7.10;99.90;;;;;;4235486;28;20189;-86
2023/05/03 00:18:22;;;;;;;2.45;1.20;;;7.50;99.90;;;;;;4236602;28;20040;-86
2023/05/03 00:20:24;;;;;;;3.38;1.48;;;7.10;99.90;;;;;;4233690;28;20112;-86
2023/05/03 00:22:25;;;;;;;7.00;1.20;;;7.10;99.90;;;;;;4235778;28;20051;-86
2023/05/03 00:24:26;;;;;;;4.70;1.83;;;7.70;99.90;;;;;;4218093;28;20075;-87
2023/05/03 00:26:27;;;;;;;4.75;1.95;;;7.20;99.90;;;;;;4218184;28;20048;-86
2023/05/03 00:28:33;;;;;;;1.50;0.88;;;7.20;99.90;;;;;;4236356;28;20043;-87
2023/05/03 00:30:35;;;;;;;3.85;1.08;;;7.10;99.90;;;;;;4231946;28;20522;-86
2023/05/03 00:32:36;;;;;;;3.42;1.00;;;7.20;99.90;;;;;;4235049;28;20483;-87
2023/05/03 00:34:43;;;;;;;2.88;1.10;;;7.20;99.90;;;;;;4215638;28;20048;-87
2023/05/03 00:36:43;;;;;;;4.35;1.00;;;8.00;99.90;;;;;;4234408;27;20043;-87
2023/05/03 00:38:44;;;;;;;2.47;1.20;;;7.20;99.90;;;;;;4233937;28;20074;-86
2023/05/03 00:40:52;;;;;;;3.63;1.30;;;7.30;99.90;;;;;;4234104;28;20104;-86
2023/05/03 00:42:53;;;;;;;5.25;1.27;;;7.20;99.90;;;;;;4226486;28;20078;-86
2023/05/03 00:45:03;;;;;;;3.58;1.60;;;7.20;99.90;;;;;;4216006;28;20933;-86
2023/05/03 00:47:05;;;;;;;7.78;1.30;;;7.30;99.90;;;;;;4208686;28;20040;-87
2023/05/03 00:49:06;;;;;;;3.25;1.10;;;7.30;99.90;;;;;;4233277;28;20047;-86
2023/05/03 00:51:11;;;;;;;3.92;0.98;;;7.30;99.90;;;;;;4233771;28;20515;-86
2023/05/03 00:53:13;;;;;;;6.38;1.02;;;7.40;99.90;;;;;;4234796;28;20040;-86
2023/05/03 00:55:14;;;;;;;5.75;1.27;;;7.40;99.90;;;;;;4232621;28;20043;-86
2023/05/03 00:57:15;;;;;;;2.05;1.30;;;7.40;99.90;;;;;;4234504;28;20047;-86
2023/05/03 00:59:18;;;;;;;7.55;0.95;;;7.40;99.90;;;;;;4234162;28;20391;-86
2023/05/03 01:01:20;;;;;;;6.65;1.40;;;7.40;99.90;;;;;;4233742;28;20411;-86
2023/05/03 01:03:21;;;;;;;1.92;0.90;;;7.50;99.90;;;;;;4229157;28;20042;-87
2023/05/03 01:05:22;;;;;;;2.88;1.27;;;7.40;99.90;;;;;;4228304;28;20083;-87
2023/05/03 01:07:34;;;;;;;4.47;1.10;;;7.50;99.90;;;;;;4216172;28;20048;-87
2023/05/03 01:09:38;;;;;;;4.15;1.10;;;7.50;99.90;;;;;;4216293;28;20519;-86
2023/05/03 01:12:02;;;;;;;2.78;1.15;;;8.10;99.90;;;;;;4216146;28;20105;-86
2023/05/03 01:14:21;;;;;;;2.88;1.20;;;7.50;99.90;;;;;;4215166;28;20046;-86
2023/05/03 01:16:33;;;;;;;0.93;0.80;;;7.50;99.90;;;;;;4209606;28;20514;-86
2023/05/03 01:18:39;;;;;;;4.40;1.20;;;7.50;99.90;;;;;;4232068;28;20040;-85
2023/05/03 01:20:42;;;;;;;1.65;1.33;;;7.50;99.90;;;;;;4232035;28;20495;-86
2023/05/03 01:22:58;;;;;;;1.73;1.02;;;7.40;99.90;;;;;;4233014;28;20054;-86
2023/05/03 01:25:07;;;;;;;2.22;1.23;;;7.40;99.90;;;;;;4214579;28;20044;-85
2023/05/03 01:27:08;;;;;;;3.60;2.05;;;7.40;99.90;;;;;;4214780;28;20048;-86
2023/05/03 01:29:09;;;;;;;5.63;1.38;;;7.40;99.90;;;;;;4216509;28;20047;-86
2023/05/03 01:31:11;;;;;;;1.05;0.95;;;7.30;99.90;;;;;;4214548;28;20044;-86
2023/05/03 01:33:32;;;;;;;3.97;1.30;;;7.30;99.90;;;;;;4198433;28;20053;-86
2023/05/03 01:35:36;;;;;;;5.35;1.52;;;7.30;99.90;;;;;;4215929;28;20081;-86
2023/05/03 01:37:38;;;;;;;3.67;1.20;;;7.20;99.90;;;;;;4210261;28;20245;-86
2023/05/03 01:39:59;;;;;;;2.65;1.10;;;7.20;99.90;;;;;;4198755;28;20052;-86
2023/05/03 01:42:03;;;;;;;2.38;1.10;;;7.10;99.90;;;;;;4215411;28;20519;-86
2023/05/03 01:44:05;;;;;;;6.75;1.27;;;7.10;99.90;;;;;;4197413;28;20049;-86
2023/05/03 01:46:07;;;;;;;1.50;1.10;;;7.20;99.90;;;;;;4214623;28;20376;-87
2023/05/03 01:48:14;;;;;;;2.65;1.63;;;7.30;99.90;;;;;;4215555;28;20545;-86
2023/05/03 01:50:15;;;;;;;4.15;1.30;;;7.20;99.90;;;;;;4198925;28;20386;-87
2023/05/03 01:52:16;;;;;;;5.78;1.30;;;7.20;99.90;;;;;;4216654;28;20088;-87
2023/05/03 01:54:17;;;;;;;1.75;1.17;;;7.20;99.90;;;;;;4211622;28;20075;-87
2023/05/03 01:56:20;;;;;;;1.25;1.10;;;7.20;99.90;;;;;;4199675;28;20069;-87
2023/05/03 01:58:21;;;;;;;4.13;1.15;;;7.20;99.90;;;;;;4216232;28;20495;-86
2023/05/03 02:00:22;;;;;;;4.13;1.85;;;7.20;99.90;;;;;;4216481;28;20086;-86
2023/05/03 02:02:22;;;;;;;2.85;1.20;;;7.20;99.90;;;;;;4214541;28;20044;-86
2023/05/03 02:04:24;;;;;;;4.65;1.38;;;7.20;99.90;;;;;;4214707;28;20044;-86
2023/05/03 02:06:25;;;;;;;2.72;1.00;;;7.20;99.90;;;;;;4216073;28;20396;-86
2023/05/03 02:08:27;;;;;;;3.92;1.20;;;7.20;99.90;;;;;;4215649;28;20044;-87
2023/05/03 02:10:27;;;;;;;2.60;1.23;;;7.20;99.90;;;;;;4216188;28;20050;-87
2023/05/03 02:12:28;;;;;;;3.28;1.35;;;7.70;99.90;;;;;;4197726;28;20079;-87
2023/05/03 02:14:29;;;;;;;1.88;1.10;;;7.20;99.90;;;;;;4217578;28;20123;-86
2023/05/03 02:16:30;;;;;;;5.40;1.30;;;7.20;99.90;;;;;;4216402;28;20401;-87
2023/05/03 02:18:32;;;;;;;3.80;1.50;;;7.20;99.90;;;;;;4216103;28;20047;-86
2023/05/03 02:20:36;;;;;;;1.85;1.10;;;7.20;99.90;;;;;;4215993;28;20119;-86
2023/05/03 02:22:37;;;;;;;2.95;1.30;;;7.20;99.90;;;;;;4217131;28;20083;-87
2023/05/03 02:24:38;;;;;;;2.75;1.40;;;7.30;99.90;;;;;;4199349;28;20105;-86
2023/05/03 02:26:40;;;;;;;2.65;1.70;;;7.40;99.90;;;;;;4204960;28;20071;-87
2023/05/03 02:28:42;;;;;;;1.98;1.35;;;7.30;99.90;;;;;;4216278;28;20055;-86
2023/05/03 02:30:43;;;;;;;2.63;1.27;;;7.40;99.90;;;;;;4216295;28;20078;-87
2023/05/03 02:32:44;;;;;;;3.35;1.48;;;7.30;99.90;;;;;;4215546;28;20047;-87
2023/05/03 02:34:47;;;;;;;3.33;1.80;;;7.30;99.90;;;;;;4199156;28;20055;-87
2023/05/03 02:36:48;;;;;;;1.63;1.15;;;7.30;99.90;;;;;;4217210;28;20050;-87
2023/05/03 02:38:51;;;;;;;3.10;1.20;;;7.30;99.90;;;;;;4199147;28;20080;-87
2023/05/03 02:40:51;;;;;;;1.40;1.20;;;7.30;99.90;;;;;;4198558;28;20049;-87
2023/05/03 02:42:53;;;;;;;4.10;1.17;;;7.30;99.90;;;;;;4214904;28;20054;-87
2023/05/03 02:44:54;;;;;;;2.65;1.55;;;7.30;99.90;;;;;;4215774;28;20040;-87
2023/05/03 02:46:55;;;;;;;3.13;1.58;;;7.30;99.90;;;;;;4198013;28;20124;-87
2023/05/03 02:48:56;;;;;;;2.55;1.20;;;7.30;99.90;;;;;;4215203;28;20093;-87
2023/05/03 02:50:58;;;;;;;6.65;1.77;;;7.30;99.90;;;;;;4215362;28;20047;-87
2023/05/03 02:52:59;;;;;;;3.75;1.20;;;7.40;99.90;;;;;;4198051;28;20049;-87
2023/05/03 02:55:01;;;;;;;2.22;1.30;;;7.70;99.90;;;;;;4215166;28;20044;-87
2023/05/03 02:57:03;;;;;;;3.85;1.30;;;7.30;99.90;;;;;;4215737;28;20115;-87
2023/05/03 02:59:04;;;;;;;3.90;1.40;;;7.30;99.90;;;;;;4215259;28;20152;-87
2023/05/03 03:01:05;;;;;;;2.63;1.10;;;7.30;99.90;;;;;;4214569;28;20036;-87
2023/05/03 03:03:05;;;;;;;2.90;1.40;;;7.30;99.90;;;;;;4198385;28;20432;-88
2023/05/03 03:05:08;;;;;;;3.95;1.45;;;7.60;99.90;;;;;;4201582;28;20052;-87
2023/05/03 03:07:10;;;;;;;4.53;1.50;;;7.20;99.90;;;;;;4210572;28;20056;-87
2023/05/03 03:09:11;;;;;;;3.17;1.27;;;7.60;99.90;;;;;;4215288;28;20040;-87
2023/05/03 03:11:12;;;;;;;2.45;1.20;;;7.50;99.90;;;;;;4215887;28;20110;-87
2023/05/03 03:13:14;;;;;;;6.45;1.63;;;7.20;99.90;;;;;;4214902;28;20048;-87
2023/05/03 03:15:15;;;;;;;2.30;1.30;;;7.20;99.90;;;;;;4215024;28;20045;-87
2023/05/03 03:17:15;;;;;;;4.25;1.33;;;7.20;99.90;;;;;;4198458;28;20638;-87
2023/05/03 03:19:18;;;;;;;2.60;1.15;;;7.20;99.90;;;;;;4200329;28;20182;-87
2023/05/03 03:21:21;;;;;;;3.15;1.13;;;7.50;99.90;;;;;;4217620;28;20488;-87
2023/05/03 03:23:22;;;;;;;1.70;1.10;;;7.60;99.90;;;;;;4218303;28;20050;-87
2023/05/03 03:25:22;;;;;;;2.13;1.05;;;7.10;99.90;;;;;;4216984;28;20040;-87
2023/05/03 03:27:23;;;;;;;1.75;1.00;;;7.10;99.90;;;;;;4218477;28;20048;-86
2023/05/03 03:29:24;;;;;;;1.27;1.00;;;7.10;99.90;;;;;;4216760;28;20126;-87
2023/05/03 03:31:27;;;;;;;4.85;1.30;;;7.40;99.90;;;;;;4200699;28;20416;-87
2023/05/03 03:33:31;;;;;;;3.42;1.27;;;7.30;99.90;;;;;;4217087;28;20063;-87
2023/05/03 03:35:32;;;;;;;6.28;1.13;;;7.00;99.90;;;;;;4217299;28;20154;-87
2023/05/03 03:37:32;;;;;;;5.20;1.27;;;7.00;99.90;;;;;;4217761;28;20484;-87
2023/05/03 03:39:33;;;;;;;2.00;1.00;;;7.00;99.90;;;;;;4222754;28;20035;-87
2023/05/03 03:41:34;;;;;;;2.70;1.70;;;7.30;99.90;;;;;;4235183;28;20080;-87
2023/05/03 03:43:39;;;;;;;2.40;1.15;;;7.00;99.90;;;;;;4233714;28;20048;-87
2023/05/03 03:45:40;;;;;;;2.10;1.00;;;6.90;99.90;;;;;;4234272;28;20089;-87
2023/05/03 03:47:40;;;;;;;2.80;1.10;;;7.00;99.90;;;;;;4233755;28;20043;-87
2023/05/03 03:49:41;;;;;;;4.05;1.30;;;6.90;99.90;;;;;;4233800;28;20047;-87
2023/05/03 03:51:42;;;;;;;1.20;1.10;;;6.90;99.90;;;;;;4233554;28;20407;-87
2023/05/03 03:53:44;;;;;;;1.48;1.00;;;6.80;99.90;;;;;;4233410;28;20130;-87
2023/05/03 03:55:44;;;;;;;2.17;1.25;;;6.80;99.90;;;;;;4234023;28;20044;-87
2023/05/03 03:57:45;;;;;;;2.45;1.50;;;6.80;99.90;;;;;;4216750;28;20481;-87
2023/05/03 03:59:46;;;;;;;6.18;1.30;;;6.90;99.90;;;;;;4223691;28;20044;-87
2023/05/03 04:01:47;;;;;;;4.43;2.15;;;6.80;99.90;;;;;;4216814;28;20195;-87
2023/05/03 04:03:48;;;;;;;3.70;1.95;;;6.80;99.90;;;;;;4219105;28;20028;-87
2023/05/03 04:05:51;;;;;;;4.35;1.70;;;6.70;99.90;;;;;;4217536;28;20078;-87
2023/05/03 04:07:51;;;;;;;3.33;1.30;;;6.70;99.90;;;;;;4227217;28;20563;-87
2023/05/03 04:09:52;;;;;;;3.13;1.10;;;6.70;99.90;;;;;;4235192;28;20052;-87
2023/05/03 04:11:54;;;;;;;1.40;1.10;;;6.70;99.90;;;;;;4235069;28;20403;-87
2023/05/03 04:13:55;;;;;;;1.83;1.17;;;6.80;99.90;;;;;;4236609;28;20547;-87
2023/05/03 04:15:56;;;;;;;2.33;1.30;;;6.90;99.90;;;;;;4230402;28;20105;-87
2023/05/03 04:17:56;;;;;;;3.88;1.30;;;6.80;99.90;;;;;;4237014;28;20048;-87
2023/05/03 04:19:58;;;;;;;4.65;1.90;;;6.80;99.90;;;;;;4232720;28;20055;-87
2023/05/03 04:21:59;;;;;;;5.05;1.58;;;6.90;99.90;;;;;;4216873;28;20063;-87
2023/05/03 04:24:05;;;;;;;2.00;0.90;;;6.80;99.90;;;;;;4245502;27;20055;-87
2023/05/03 04:26:06;;;;;;;2.50;1.00;;;6.90;99.90;;;;;;4217129;28;20063;-87
2023/05/03 04:28:08;;;;;;;1.45;0.93;;;6.90;99.90;;;;;;4223010;28;20044;-87
2023/05/03 04:30:10;;;;;;;3.28;1.02;;;6.90;99.90;;;;;;4215474;28;20044;-87
2023/05/03 04:32:13;;;;;;;3.00;1.20;;;6.90;99.90;;;;;;4200372;28;20060;-87
2023/05/03 04:34:15;;;;;;;1.90;1.50;;;6.90;99.90;;;;;;4228629;28;20048;-87
2023/05/03 04:36:17;;;;;;;3.50;1.40;;;6.90;99.90;;;;;;4216656;28;20051;-87
2023/05/03 04:38:18;;;;;;;1.20;1.10;;;6.90;99.90;;;;;;4216292;28;20074;-86
2023/05/03 04:40:19;;;;;;;1.45;1.27;;;6.90;99.90;;;;;;4233569;28;20032;-87
2023/05/03 04:42:20;;;;;;;3.05;1.23;;;6.90;99.90;;;;;;4234413;28;20229;-87
2023/05/03 04:44:21;;;;;;;6.10;1.25;;;7.60;99.90;;;;;;4233599;28;20044;-87
2023/05/03 04:46:21;;;;;;;2.30;1.10;;;7.00;99.90;;;;;;4232911;28;20108;-86
2023/05/03 04:48:23;;;;;;;7.43;1.30;;;7.00;99.90;;;;;;4215965;28;20056;-87
2023/05/03 04:50:23;;;;;;;8.07;2.67;;;7.00;99.90;;;;;;4234645;28;20527;-87
2023/05/03 04:52:28;;;;;;;2.45;1.50;;;7.00;99.90;;;;;;4234860;28;20091;-87
2023/05/03 04:54:30;;;;;;;3.55;1.15;;;7.20;99.90;;;;;;4218561;28;20553;-87
2023/05/03 04:56:34;;;;;;;2.50;1.67;;;7.10;99.90;;;;;;4219211;28;20118;-87
2023/05/03 04:58:37;;;;;;;4.82;1.20;;;7.10;99.90;;;;;;4216708;28;20055;-86
2023/05/03 05:00:38;;;;;;;4.65;1.00;;;7.20;99.90;;;;;;4218729;28;20048;-86
2023/05/03 05:02:39;;;;;;;5.15;1.10;;;7.20;99.90;;;;;;4234741;28;20445;-86
2023/05/03 05:04:40;;;;;;;2.47;1.30;;;7.20;99.90;;;;;;4235063;27;20048;-86
2023/05/03 05:06:41;;;;;;;2.85;1.00;;;7.50;99.90;;;;;;4234311;28;20439;-86
2023/05/03 05:08:43;;;;;;;2.15;1.15;;;7.30;99.90;;;;;;4224333;28;20055;-86
2023/05/03 05:10:43;;;;;;;3.08;1.23;;;7.30;99.90;;;;;;4217392;28;20027;-86
2023/05/03 05:12:45;;;;;;;2.15;1.10;;;7.80;99.90;;;;;;4198785;28;20123;-87
2023/05/03 05:14:45;;;;;;;1.23;0.98;;;7.40;99.90;;;;;;4234695;28;20051;-86
2023/05/03 05:16:48;;;;;;;3.20;1.13;;;7.40;99.90;;;;;;4215643;28;20412;-86
2023/05/03 05:18:50;;;;;;;1.67;1.25;;;7.40;99.90;;;;;;4218533;28;20040;-86
2023/05/03 05:20:51;;;;;;;2.60;1.10;;;7.50;99.90;;;;;;4213856;28;20044;-87
2023/05/03 05:22:51;;;;;;;6.47;1.88;;;7.50;99.90;;;;;;4230659;28;20445;-85
2023/05/03 05:24:53;;;;;;;2.80;1.58;;;7.60;99.90;;;;;;4232637;28;20104;-84
2023/05/03 05:26:54;;;;;;;2.90;1.05;;;7.60;99.90;;;;;;4231866;28;20051;-84
2023/05/03 05:28:56;;;;;;;2.17;0.93;;;7.70;99.90;;;;;;4214694;28;20059;-86
2023/05/03 05:30:57;;;;;;;1.77;0.90;;;7.70;99.90;;;;;;4234007;28;20052;-86
2023/05/03 05:32:59;;;;;;;4.55;1.10;;;7.80;99.90;;;;;;4231849;28;20048;-85
2023/05/03 05:35:01;;;;;;;4.45;1.30;;;7.90;99.90;;;;;;4213691;28;20047;-84
2023/05/03 05:37:04;;;;;;;2.70;1.30;;;7.90;99.90;;;;;;4223303;28;20047;-84
2023/05/03 05:39:05;;;;;;;5.53;1.73;;;8.00;99.90;;;;;;4234544;27;20053;-85
2023/05/03 05:41:06;;;;;;;5.10;1.10;;;8.00;99.90;;;;;;4214975;28;20836;-84
2023/05/03 05:43:08;;;;;;;4.05;0.70;;;8.00;99.90;;;;;;4215003;28;20044;-85
2023/05/03 05:45:09;;;;;;;1.17;0.80;;;8.10;99.90;;;;;;4214962;28;20347;-85
2023/05/03 05:47:11;;;;;;;2.50;0.85;;;8.10;99.90;;;;;;4215101;28;20541;-85
2023/05/03 05:49:12;;;;;;;4.95;0.88;;;8.10;99.90;;;;;;4216866;28;20047;-84
2023/05/03 05:51:13;;;;;;;2.28;0.73;;;8.30;99.90;;;;;;4215922;28;20043;-85
2023/05/03 05:53:15;;;;;;;2.65;1.00;;;8.30;99.90;;;;;;4217217;28;20147;-85
2023/05/03 05:55:16;;;;;;;4.43;1.33;;;8.30;99.90;;;;;;4216148;28;20134;-85
2023/05/03 05:57:17;;;;;;;5.25;1.35;;;8.40;99.90;;;;;;4215506;28;20055;-85
2023/05/03 05:59:20;;;;;;;2.88;0.98;;;8.40;99.90;;;;;;4215243;28;20419;-86
2023/05/03 06:01:21;;;;;;;1.20;0.50;;;8.50;99.90;;;;;;4198965;28;20048;-85
2023/05/03 06:03:22;;;;;;;5.65;0.63;;;8.50;99.90;;;;;;4214202;28;20047;-85
2023/05/03 06:05:23;;;;;;;3.05;0.80;;;8.50;99.90;;;;;;4216101;28;20036;-85
2023/05/03 06:07:24;;;;;;;3.63;0.60;;;8.50;99.90;;;;;;4218173;28;20499;-85
2023/05/03 06:09:25;;;;;;;1.27;0.90;;;8.90;99.90;;;;;;4231738;28;20048;-85
2023/05/03 06:11:27;;;;;;;2.40;1.20;;;8.60;99.90;;;;;;4230737;28;20055;-85
2023/05/03 06:13:27;;;;;;;2.60;1.10;;;8.70;99.90;;;;;;4230086;28;20044;-85
2023/05/03 06:15:28;;;;;;;5.15;1.25;;;8.70;99.90;;;;;;4231429;28;20096;-85
2023/05/03 06:17:29;;;;;;;3.20;0.65;;;8.80;99.90;;;;;;4230219;28;20082;-85
2023/05/03 06:19:30;;;;;;;5.20;1.08;;;8.80;99.90;;;;;;4213935;28;20047;-85
2023/05/03 06:21:33;;;;;;;2.20;0.70;;;8.90;99.90;;;;;;4232424;28;20035;-85
2023/05/03 06:23:36;;;;;;;1.10;0.60;;;8.20;99.90;;;;;;4229992;28;20055;-85
2023/05/03 06:25:37;;;;;;;0.77;0.70;;;9.00;99.90;;;;;;4232223;28;20055;-86
2023/05/03 06:27:37;;;;;;;1.55;1.05;;;9.00;99.90;;;;;;4230409;28;20040;-86
2023/05/03 06:29:38;;;;;;;1.95;0.77;;;9.10;99.90;;;;;;4226772;28;20046;-86
2023/05/03 06:31:40;;;;;;;2.63;0.60;;;9.10;99.90;;;;;;4230301;28;20161;-86
2023/05/03 06:33:42;;;;;;;6.13;1.10;;;9.10;99.90;;;;;;4232090;28;20047;-86
2023/05/03 06:35:46;;;;;;;2.33;0.60;;;9.20;99.90;;;;;;4232047;28;20053;-85
2023/05/03 06:37:48;;;;;;;0.80;0.60;;;9.20;99.90;;;;;;4230223;28;20126;-86
2023/05/03 06:39:50;;;;;;;1.38;0.63;;;8.30;99.90;;;;;;4231192;28;20055;-86
2023/05/03 06:41:51;;;;;;;2.67;0.65;;;9.20;99.90;;;;;;4231593;28;20126;-86
2023/05/03 06:43:53;;;;;;;4.45;1.20;;;9.40;99.90;;;;;;4231597;28;20096;-86
2023/05/03 06:45:53;;;;;;;2.95;0.80;;;9.30;99.90;;;;;;4229953;28;20408;-86
2023/05/03 06:47:55;;;;;;;1.27;0.60;;;9.30;99.90;;;;;;4214547;28;20052;-86
2023/05/03 06:49:55;;;;;;;1.92;0.75;;;9.30;99.90;;;;;;4226731;28;20617;-86
2023/05/03 06:51:56;;;;;;;2.17;0.70;;;9.50;99.90;;;;;;4230548;28;20123;-86
2023/05/03 06:54:05;;;;;;;2.75;0.63;;;9.50;99.90;;;;;;4235496;28;20050;-86
2023/05/03 06:56:06;;;;;;;4.82;0.73;;;9.40;99.90;;;;;;4235091;28;20457;-86
2023/05/03 06:58:10;;;;;;;4.10;1.50;;;9.50;99.90;;;;;;4234661;28;20051;-87
2023/05/03 07:00:11;;;;;;;1.95;0.52;;;9.50;99.90;;;;;;4216464;28;20040;-88
2023/05/03 07:02:13;;;;;;;2.28;0.60;;;9.50;99.80;;;;;;4228174;28;20039;-86
2023/05/03 07:04:15;;;;;;;1.48;0.55;;;9.60;99.90;;;;;;4219703;28;20048;-87
2023/05/03 07:06:17;;;;;;;1.58;0.60;;;9.70;99.70;;;;;;4231424;28;20055;-86
2023/05/03 07:08:17;;;;;;;3.30;0.95;;;10.20;99.70;;;;;;4236207;28;20468;-87
2023/05/03 07:10:18;;;;;;;1.60;0.65;;;9.80;99.40;;;;;;4236181;28;20039;-88
2023/05/03 07:12:19;;;;;;;2.50;1.05;;;9.80;99.40;;;;;;4236833;28;20040;-85
2023/05/03 07:14:21;;;;;;;3.15;0.63;;;9.80;99.10;;;;;;4234073;28;20076;-88
2023/05/03 07:16:24;;;;;;;1.45;0.73;;;9.80;98.80;;;;;;4233997;28;20140;-86
2023/05/03 07:18:26;;;;;;;5.68;0.88;;;9.80;98.40;;;;;;4237287;28;20040;-87
2023/05/03 07:20:28;;;;;;;1.55;0.73;;;9.80;98.30;;;;;;4229758;28;20126;-88
2023/05/03 07:22:32;;;;;;;3.67;0.75;;;9.90;98.50;;;;;;4236032;28;20055;-88
2023/05/03 07:24:32;;;;;;;2.40;0.57;;;9.90;98.40;;;;;;4235862;28;20439;-88
2023/05/03 07:26:34;;;;;;;0.77;0.57;;;9.90;98.30;;;;;;4204385;28;20053;-88
2023/05/03 07:28:36;;;;;;;1.17;0.60;;;10.00;98.20;;;;;;4235595;28;20039;-88
2023/05/03 07:30:38;;;;;;;2.55;0.80;;;10.00;98.20;;;;;;4220953;28;20048;-87
2023/05/03 07:32:38;;;;;;;2.13;0.73;;;10.10;98.20;;;;;;4223580;28;20050;-87
2023/05/03 07:34:40;;;;;;;2.00;0.60;;;10.20;98.00;;;;;;4227903;28;20074;-86
2023/05/03 07:36:41;;;;;;;5.03;0.98;;;10.30;98.20;;;;;;4234205;28;20047;-87
2023/05/03 07:38:42;;;;;;;4.07;0.60;;;10.30;98.20;;;;;;4218300;28;20051;-86
2023/05/03 07:40:43;;;;;;;2.83;0.68;;;10.00;98.00;;;;;;4223397;28;20048;-86
2023/05/03 07:42:44;;;;;;;3.30;0.73;;;10.40;97.70;;;;;;4217444;28;20111;-87
2023/05/03 07:44:47;;;;;;;3.70;0.80;;;10.50;97.80;;;;;;4218782;28;20492;-86
2023/05/03 07:46:47;;;;;;;2.67;0.80;;;10.50;97.50;;;;;;4201634;28;20095;-86
2023/05/03 07:48:48;;;;;;;2.90;0.70;;;10.50;97.50;;;;;;4218024;28;20048;-87
2023/05/03 07:50:49;;;;;;;3.17;0.63;;;10.50;97.40;;;;;;4219920;28;20044;-86
2023/05/03 07:52:50;;;;;;;3.20;0.70;;;10.50;97.40;;;;;;4245425;27;20043;-86
2023/05/03 07:54:52;;;;;;;1.27;0.80;;;10.60;97.20;;;;;;4219370;28;20496;-87
2023/05/03 07:56:53;;;;;;;4.88;0.75;;;10.60;97.10;;;;;;4221059;28;20443;-87
2023/05/03 07:58:53;;;;;;;2.90;0.73;;;10.70;97.30;;;;;;4201174;28;20052;-87
2023/05/03 08:00:54;;;;;;;2.65;0.70;;;10.80;97.40;;;;;;4218424;28;20051;-87
2023/05/03 08:02:56;;;;;;;2.67;0.90;;;10.80;97.40;;;;;;4219520;28;20086;-87
2023/05/03 08:04:58;;;;;;;4.95;0.75;;;10.80;97.20;;;;;;4218379;28;20048;-87
2023/05/03 08:07:03;;;;;;;2.05;0.73;;;10.80;97.10;;;;;;4217467;28;20131;-87
2023/05/03 08:09:04;;;;;;;1.83;0.82;;;10.90;97.00;;;;;;4249396;28;20030;-86
2023/05/03 08:11:05;;;;;;;3.72;1.25;;;10.90;96.90;;;;;;4235515;28;20052;-88
2023/05/03 08:13:06;;;;;;;2.53;0.70;;;11.00;96.90;;;;;;4252413;27;20043;-86
2023/05/03 08:15:08;;;;;;;3.35;0.68;;;11.00;96.60;;;;;;4251529;28;20050;-87
2023/05/03 08:17:10;;;;;;;5.07;0.75;;;11.00;96.60;;;;;;4219556;28;20055;-87
2023/05/03 08:19:11;;;;;;;2.65;0.70;;;11.10;96.60;;;;;;4238705;28;20407;-87
2023/05/03 08:21:13;;;;;;;2.78;0.70;;;10.40;96.40;;;;;;4235336;28;20067;-84
2023/05/03 08:23:15;;;;;;;2.88;1.25;;;11.10;96.50;;;;;;4236531;28;20060;-85
2023/05/03 08:25:16;;;;;;;1.90;0.63;;;11.10;96.50;;;;;;4234867;28;20051;-85
2023/05/03 08:27:17;;;;;;;2.58;1.17;;;11.00;96.30;;;;;;4236157;28;20071;-85
2023/05/03 08:29:18;;;;;;;2.20;0.50;;;11.10;96.20;;;;;;4235679;28;20032;-84
2023/05/03 08:31:19;;;;;;;2.58;0.82;;;11.00;96.00;;;;;;4231497;28;20523;-85
2023/05/03 08:33:20;;;;;;;1.83;0.68;;;11.10;96.10;;;;;;4233626;28;20163;-85
2023/05/03 08:35:21;;;;;;;6.45;0.70;;;11.20;96.20;;;;;;4233889;28;20126;-85
2023/05/03 08:37:23;;;;;;;2.00;0.75;;;11.20;95.90;;;;;;4216545;28;20044;-85
2023/05/03 08:39:25;;;;;;;4.05;0.90;;;11.20;95.60;;;;;;4232544;28;20079;-85
2023/05/03 08:41:29;;;;;;;4.93;0.98;;;11.20;95.40;;;;;;4234090;28;20051;-85
2023/05/03 08:43:34;;;;;;;4.80;0.70;;;11.20;95.40;;;;;;4233779;28;20495;-85
2023/05/03 08:45:35;;;;;;;4.00;0.73;;;11.20;95.50;;;;;;4233737;28;20039;-86
2023/05/03 08:47:39;;;;;;;3.67;0.77;;;11.30;96.00;;;;;;4234371;28;20140;-86
2023/05/03 08:49:47;;;;;;;2.65;0.60;;;11.30;95.80;;;;;;4215269;28;20906;-86
2023/05/03 08:51:49;;;;;;;9.40;1.63;;;11.30;95.90;;;;;;4215677;28;20040;-87
2023/05/03 08:53:51;;;;;;;7.30;0.82;;;11.40;96.00;;;;;;4232199;28;20040;-86
2023/05/03 08:55:52;;;;;;;3.80;0.77;;;11.40;96.00;;;;;;4231872;28;20048;-86
2023/05/03 08:57:53;;;;;;;4.97;1.35;;;11.40;95.80;;;;;;4228955;28;20048;-86
2023/05/03 08:59:59;;;;;;;3.50;0.60;;;11.40;95.80;;;;;;4219045;28;20103;-85
2023/05/03 09:02:01;;;;;;;2.15;0.65;;;11.40;95.80;;;;;;4217675;28;20127;-86
2023/05/03 09:04:02;;;;;;;2.28;0.77;;;11.50;95.40;;;;;;4215686;28;20048;-85
2023/05/03 09:06:19;;;;;;;7.05;1.67;;;11.60;95.70;;;;;;4221821;28;20035;-86
2023/05/03 09:08:21;;;;;;;1.13;0.70;;;11.60;95.40;;;;;;4231273;28;20048;-87
2023/05/03 09:10:23;;;;;;;1.92;0.65;;;11.60;95.70;;;;;;4228780;28;20480;-87
2023/05/03 09:12:37;;;;;;;2.15;0.93;;;11.70;95.70;;;;;;4231987;28;20044;-86
2023/05/03 09:14:45;;;;;;;3.33;0.80;;;11.80;95.80;;;;;;4231272;28;20855;-86
2023/05/03 09:16:46;;;;;;;4.78;0.80;;;11.80;95.40;;;;;;4215124;28;20047;-86
2023/05/03 09:18:57;;;;;;;2.47;0.85;;;;;;;;;;4215561;28;20127;-86
2023/05/03 09:20:58;;;;;;;1.85;1.02;;;;;;;;;;4216666;28;20075;-86
2023/05/03 09:23:00;;;;;;;5.88;1.20;;;11.80;95.40;;;;;;4218439;28;20040;-87
2023/05/03 09:25:02;;;;;;;3.42;0.80;;;11.90;95.20;;;;;;4234232;28;20043;-86
2023/05/03 09:27:18;;;;;;;3.10;0.90;;;11.90;95.40;;;;;;4197786;28;20044;-86
2023/05/03 09:29:34;;;;;;;3.03;0.70;;;11.90;94.90;;;;;;4233499;28;20052;-86
2023/05/03 09:31:36;;;;;;;3.90;0.80;;;12.00;94.70;;;;;;4233684;28;20052;-87
2023/05/03 09:33:37;;;;;;;2.67;0.73;;;11.90;95.10;;;;;;4232862;28;20126;-87
2023/05/03 09:35:38;;;;;;;2.67;0.90;;;12.00;94.70;;;;;;4199729;28;20049;-86
2023/05/03 09:37:39;;;;;;;3.05;0.70;;;12.00;94.90;;;;;;4233777;28;20047;-86
2023/05/03 09:39:42;;;;;;;4.05;0.93;;;12.10;94.80;;;;;;4214934;28;20044;-86
2023/05/03 09:41:43;;;;;;;1.30;0.60;;;;;;;;;;4233754;28;20079;-86
2023/05/03 09:43:51;;;;;;;5.00;1.05;;;;;;;;;;4234324;28;20535;-86
2023/05/03 09:45:52;;;;;;;4.20;1.40;;;11.70;94.50;;;;;;4232785;28;20048;-86
2023/05/03 09:47:55;;;;;;;3.20;1.67;;;12.30;94.50;;;;;;4198149;28;20149;-85
2023/05/03 09:49:56;;;;;;;3.65;0.70;;;12.30;94.20;;;;;;4214702;28;20853;-86
2023/05/03 09:52:00;;;;;;;1.67;0.90;;;12.20;93.90;;;;;;4233318;28;20050;-86
2023/05/03 09:54:02;;;;;;;4.40;0.73;;;12.20;93.50;;;;;;4215185;28;20052;-87
2023/05/03 09:56:12;;;;;;;1.58;0.60;;;12.20;93.60;;;;;;4233843;28;20101;-86
2023/05/03 09:58:14;;;;;;;3.33;0.80;;;12.30;93.70;;;;;;4199001;28;20044;-87
2023/05/03 10:00:16;;;;;;;3.33;0.73;;;12.40;93.60;;;;;;4232454;28;20563;-87
2023/05/03 10:02:17;;;;;;;1.95;0.68;;;;;;;;;;4233905;28;20047;-87
2023/05/03 10:04:19;;;;;;;1.88;1.35;;;;;;;;;;4208076;28;20481;-87
2023/05/03 10:06:38;;;;;;;3.60;0.63;;;;;;;;;;4249709;27;20047;-87
2023/05/03 10:08:41;;;;;;;1.92;0.75;;;;;;;;;;4230891;28;20055;-87
2023/05/03 10:10:43;;;;;;;4.65;1.15;;;;;;;;;;4250036;27;20047;-87
2023/05/03 10:12:45;;;;;;;2.35;0.60;;;;;;;;;;4232546;28;20099;-86
2023/05/03 10:14:47;;;;;;;2.17;0.60;;;;;;;;;;4214720;28;20115;-87
2023/05/03 10:16:49;;;;;;;3.40;1.23;;;;;;;;;;4233482;28;20047;-88
2023/05/03 10:18:54;;;;;;;3.17;0.82;;;;;;;;;;4218220;28;20063;-85
2023/05/03 10:21:03;;;;;;;1.85;1.00;;;;;;;;;;4216613;28;20066;-85
2023/05/03 10:23:04;;;;;;;1.40;0.73;;;12.50;93.40;;;;;;4250685;27;20043;-85
2023/05/03 10:25:07;;;;;;;5.35;1.15;;;;;;;;;;4250205;27;20047;-84
2023/05/03 10:27:11;;;;;;;3.03;0.80;;;13.20;92.10;;;;;;4250681;27;20051;-84
2023/05/03 10:29:34;;;;;;;1.90;1.00;;;13.40;92.10;;;;;;4250510;27;20035;-84
2023/05/03 10:31:45;;;;;;;3.58;1.17;;;13.60;90.70;;;;;;4249827;27;20075;-84
2023/05/03 10:33:46;;;;;;;1.88;0.70;;;13.60;91.00;;;;;;4250036;27;20042;-83
2023/05/03 10:35:52;;;;;;;1.45;0.57;;;13.60;91.40;;;;;;4231527;28;20050;-83
2023/05/03 10:37:55;;;;;;;3.95;0.98;;;13.80;90.80;;;;;;4231579;28;20055;-83
2023/05/03 10:40:05;;;;;;;4.25;0.90;;;13.90;90.80;;;;;;4232811;28;20047;-84
2023/05/03 10:42:08;;;;;;;2.28;0.90;;;14.10;90.10;;;;;;4232173;28;20102;-84
2023/05/03 10:44:38;;;;;;;4.30;0.80;;;14.20;90.10;;;;;;4252194;28;20054;-83
2023/05/03 10:46:42;;;;;;;1.02;0.52;;;14.10;88.40;;;;;;4250079;28;20046;-85